sensor_id;sensor_type;location;lat;lon;timestamp;P1;durP1;ratioP1;P2;durP2;ratioP2
62610;SDS011;48683;48.084;17.272;2023-04-25T00:00:38;3.00;;;2.53;;
62610;SDS011;48683;48.084;17.272;2023-04-25T00:03:03;2.78;;;2.50;;
62610;SDS011;48683;48.084;17.272;2023-04-25T00:05:31;2.65;;;2.22;;
62610;SDS011;48683;48.084;17.272;2023-04-25T00:07:56;2.72;;;2.38;;
62610;SDS011;48683;48.084;17.272;2023-04-25T00:10:22;2.20;;;2.00;;
62610;SDS011;48683;48.084;17.272;2023-04-25T00:12:48;2.28;;;2.00;;
62610;SDS011;48683;48.084;17.272;2023-04-25T00:15:13;2.33;;;2.13;;
62610;SDS011;48683;48.084;17.272;2023-04-25T00:17:39;5.57;;;2.13;;
62610;SDS011;48683;48.084;17.272;2023-04-25T00:20:05;3.65;;;2.03;;
62610;SDS011;48683;48.084;17.272;2023-04-25T00:22:32;2.88;;;2.30;;
62610;SDS011;48683;48.084;17.272;2023-04-25T00:24:59;2.80;;;2.08;;
62610;SDS011;48683;48.084;17.272;2023-04-25T00:27:25;2.55;;;2.35;;
62610;SDS011;48683;48.084;17.272;2023-04-25T00:29:51;1.90;;;1.80;;
62610;SDS011;48683;48.084;17.272;2023-04-25T00:32:17;3.55;;;2.25;;
62610;SDS011;48683;48.084;17.272;2023-04-25T00:34:42;2.72;;;2.20;;
62610;SDS011;48683;48.084;17.272;2023-04-25T00:37:07;3.83;;;2.03;;
62610;SDS011;48683;48.084;17.272;2023-04-25T00:39:33;2.40;;;2.20;;
62610;SDS011;48683;48.084;17.272;2023-04-25T00:41:58;2.50;;;2.30;;
62610;SDS011;48683;48.084;17.272;2023-04-25T00:44:25;3.40;;;2.17;;
62610;SDS011;48683;48.084;17.272;2023-04-25T00:49:18;2.38;;;2.13;;
62610;SDS011;48683;48.084;17.272;2023-04-25T00:51:44;2.30;;;2.10;;
62610;SDS011;48683;48.084;17.272;2023-04-25T00:54:10;4.55;;;2.42;;
62610;SDS011;48683;48.084;17.272;2023-04-25T00:56:37;2.70;;;2.28;;
62610;SDS011;48683;48.084;17.272;2023-04-25T00:59:02;2.88;;;1.85;;
62610;SDS011;48683;48.084;17.272;2023-04-25T01:01:28;2.47;;;2.03;;
62610;SDS011;48683;48.084;17.272;2023-04-25T01:03:54;2.05;;;1.95;;
62610;SDS011;48683;48.084;17.272;2023-04-25T01:06:19;2.65;;;2.42;;
62610;SDS011;48683;48.084;17.272;2023-04-25T01:08:45;2.70;;;2.20;;
62610;SDS011;48683;48.084;17.272;2023-04-25T01:11:10;3.05;;;1.92;;
62610;SDS011;48683;48.084;17.272;2023-04-25T01:13:35;2.38;;;2.17;;
62610;SDS011;48683;48.084;17.272;2023-04-25T01:16:01;2.22;;;2.03;;
62610;SDS011;48683;48.084;17.272;2023-04-25T01:18:27;3.28;;;2.03;;
62610;SDS011;48683;48.084;17.272;2023-04-25T01:20:53;3.60;;;2.05;;
62610;SDS011;48683;48.084;17.272;2023-04-25T01:23:19;2.55;;;2.30;;
62610;SDS011;48683;48.084;17.272;2023-04-25T01:25:45;2.00;;;1.90;;
62610;SDS011;48683;48.084;17.272;2023-04-25T01:28:11;2.10;;;1.80;;
62610;SDS011;48683;48.084;17.272;2023-04-25T01:30:37;3.10;;;2.05;;
62610;SDS011;48683;48.084;17.272;2023-04-25T01:33:03;2.75;;;1.95;;
62610;SDS011;48683;48.084;17.272;2023-04-25T01:35:30;1.95;;;1.85;;
62610;SDS011;48683;48.084;17.272;2023-04-25T01:37:56;5.82;;;2.13;;
62610;SDS011;48683;48.084;17.272;2023-04-25T01:40:22;2.33;;;2.00;;
62610;SDS011;48683;48.084;17.272;2023-04-25T01:42:49;3.92;;;2.17;;
62610;SDS011;48683;48.084;17.272;2023-04-25T01:45:15;2.33;;;2.13;;
62610;SDS011;48683;48.084;17.272;2023-04-25T01:47:40;3.17;;;1.92;;
62610;SDS011;48683;48.084;17.272;2023-04-25T01:50:08;3.05;;;2.58;;
62610;SDS011;48683;48.084;17.272;2023-04-25T01:52:34;2.27;;;2.07;;
62610;SDS011;48683;48.084;17.272;2023-04-25T01:54:59;3.08;;;2.20;;
62610;SDS011;48683;48.084;17.272;2023-04-25T01:59:53;5.43;;;2.17;;
62610;SDS011;48683;48.084;17.272;2023-04-25T02:02:23;3.42;;;2.60;;
62610;SDS011;48683;48.084;17.272;2023-04-25T02:04:48;4.07;;;2.45;;
62610;SDS011;48683;48.084;17.272;2023-04-25T02:07:14;3.75;;;2.38;;
62610;SDS011;48683;48.084;17.272;2023-04-25T02:09:39;3.38;;;2.30;;
62610;SDS011;48683;48.084;17.272;2023-04-25T02:12:05;2.85;;;2.30;;
62610;SDS011;48683;48.084;17.272;2023-04-25T02:14:30;2.75;;;2.42;;
62610;SDS011;48683;48.084;17.272;2023-04-25T02:16:56;2.50;;;2.30;;
62610;SDS011;48683;48.084;17.272;2023-04-25T02:19:22;2.30;;;2.10;;
62610;SDS011;48683;48.084;17.272;2023-04-25T02:21:47;2.47;;;2.28;;
62610;SDS011;48683;48.084;17.272;2023-04-25T02:24:12;2.30;;;2.10;;
62610;SDS011;48683;48.084;17.272;2023-04-25T02:26:38;2.30;;;1.95;;
62610;SDS011;48683;48.084;17.272;2023-04-25T02:29:03;2.50;;;2.30;;
62610;SDS011;48683;48.084;17.272;2023-04-25T02:31:28;2.40;;;2.17;;
62610;SDS011;48683;48.084;17.272;2023-04-25T02:33:54;2.50;;;2.30;;
62610;SDS011;48683;48.084;17.272;2023-04-25T02:36:19;4.78;;;2.38;;
62610;SDS011;48683;48.084;17.272;2023-04-25T02:38:45;2.38;;;2.15;;
62610;SDS011;48683;48.084;17.272;2023-04-25T02:41:10;2.95;;;2.50;;
62610;SDS011;48683;48.084;17.272;2023-04-25T02:43:35;3.13;;;2.13;;
62610;SDS011;48683;48.084;17.272;2023-04-25T02:46:01;3.03;;;2.13;;
62610;SDS011;48683;48.084;17.272;2023-04-25T02:48:26;3.05;;;2.13;;
62610;SDS011;48683;48.084;17.272;2023-04-25T02:50:51;3.58;;;2.28;;
62610;SDS011;48683;48.084;17.272;2023-04-25T02:53:17;3.58;;;2.25;;
62610;SDS011;48683;48.084;17.272;2023-04-25T02:55:42;2.35;;;2.15;;
62610;SDS011;48683;48.084;17.272;2023-04-25T02:58:07;2.40;;;2.20;;
62610;SDS011;48683;48.084;17.272;2023-04-25T03:00:33;3.85;;;1.90;;
62610;SDS011;48683;48.084;17.272;2023-04-25T03:02:58;2.20;;;2.00;;
62610;SDS011;48683;48.084;17.272;2023-04-25T03:05:23;3.17;;;2.20;;
62610;SDS011;48683;48.084;17.272;2023-04-25T03:07:49;5.35;;;2.25;;
62610;SDS011;48683;48.084;17.272;2023-04-25T03:10:14;2.30;;;2.10;;
62610;SDS011;48683;48.084;17.272;2023-04-25T03:12:40;3.42;;;2.17;;
62610;SDS011;48683;48.084;17.272;2023-04-25T03:15:05;3.75;;;2.38;;
62610;SDS011;48683;48.084;17.272;2023-04-25T03:17:31;3.15;;;2.80;;
62610;SDS011;48683;48.084;17.272;2023-04-25T03:19:57;5.18;;;2.15;;
62610;SDS011;48683;48.084;17.272;2023-04-25T03:22:22;3.13;;;2.38;;
62610;SDS011;48683;48.084;17.272;2023-04-25T03:24:48;3.50;;;2.25;;
62610;SDS011;48683;48.084;17.272;2023-04-25T03:27:14;2.80;;;2.20;;
62610;SDS011;48683;48.084;17.272;2023-04-25T03:29:39;3.10;;;2.45;;
62610;SDS011;48683;48.084;17.272;2023-04-25T03:32:05;3.00;;;2.10;;
62610;SDS011;48683;48.084;17.272;2023-04-25T03:34:30;2.35;;;2.10;;
62610;SDS011;48683;48.084;17.272;2023-04-25T03:36:56;2.90;;;2.25;;
62610;SDS011;48683;48.084;17.272;2023-04-25T03:39:21;4.97;;;2.20;;
62610;SDS011;48683;48.084;17.272;2023-04-25T03:41:46;2.95;;;2.53;;
62610;SDS011;48683;48.084;17.272;2023-04-25T03:44:12;4.00;;;2.40;;
62610;SDS011;48683;48.084;17.272;2023-04-25T03:46:38;2.35;;;2.15;;
62610;SDS011;48683;48.084;17.272;2023-04-25T03:49:04;5.25;;;2.20;;
62610;SDS011;48683;48.084;17.272;2023-04-25T03:51:29;3.42;;;2.70;;
62610;SDS011;48683;48.084;17.272;2023-04-25T03:53:55;2.90;;;2.13;;
62610;SDS011;48683;48.084;17.272;2023-04-25T03:56:21;2.92;;;2.58;;
62610;SDS011;48683;48.084;17.272;2023-04-25T03:58:46;3.13;;;2.35;;
62610;SDS011;48683;48.084;17.272;2023-04-25T04:01:12;4.97;;;2.40;;
62610;SDS011;48683;48.084;17.272;2023-04-25T04:03:37;2.90;;;2.60;;
62610;SDS011;48683;48.084;17.272;2023-04-25T04:06:03;4.38;;;2.70;;
62610;SDS011;48683;48.084;17.272;2023-04-25T04:08:30;2.65;;;2.45;;
62610;SDS011;48683;48.084;17.272;2023-04-25T04:10:56;4.30;;;2.90;;
62610;SDS011;48683;48.084;17.272;2023-04-25T04:15:48;3.83;;;2.40;;
62610;SDS011;48683;48.084;17.272;2023-04-25T04:18:13;3.55;;;2.58;;
62610;SDS011;48683;48.084;17.272;2023-04-25T04:20:39;3.22;;;2.55;;
62610;SDS011;48683;48.084;17.272;2023-04-25T04:23:04;3.90;;;2.65;;
62610;SDS011;48683;48.084;17.272;2023-04-25T04:25:30;2.67;;;2.47;;
62610;SDS011;48683;48.084;17.272;2023-04-25T04:27:56;2.90;;;2.50;;
62610;SDS011;48683;48.084;17.272;2023-04-25T04:30:22;3.10;;;2.65;;
62610;SDS011;48683;48.084;17.272;2023-04-25T04:32:54;2.85;;;2.55;;
62610;SDS011;48683;48.084;17.272;2023-04-25T04:35:20;4.50;;;3.03;;
62610;SDS011;48683;48.084;17.272;2023-04-25T04:37:46;4.47;;;2.83;;
62610;SDS011;48683;48.084;17.272;2023-04-25T04:40:12;3.10;;;2.67;;
62610;SDS011;48683;48.084;17.272;2023-04-25T04:42:40;5.50;;;2.85;;
62610;SDS011;48683;48.084;17.272;2023-04-25T04:45:10;3.88;;;2.60;;
62610;SDS011;48683;48.084;17.272;2023-04-25T04:47:36;3.60;;;2.88;;
62610;SDS011;48683;48.084;17.272;2023-04-25T04:50:02;3.58;;;2.75;;
62610;SDS011;48683;48.084;17.272;2023-04-25T04:52:29;5.55;;;3.03;;
62610;SDS011;48683;48.084;17.272;2023-04-25T04:54:54;5.38;;;3.33;;
62610;SDS011;48683;48.084;17.272;2023-04-25T04:57:20;3.42;;;2.80;;
62610;SDS011;48683;48.084;17.272;2023-04-25T04:59:45;3.15;;;2.80;;
62610;SDS011;48683;48.084;17.272;2023-04-25T05:02:11;6.60;;;3.35;;
62610;SDS011;48683;48.084;17.272;2023-04-25T05:04:36;4.78;;;2.97;;
62610;SDS011;48683;48.084;17.272;2023-04-25T05:07:02;5.03;;;3.22;;
62610;SDS011;48683;48.084;17.272;2023-04-25T05:09:27;3.60;;;3.15;;
62610;SDS011;48683;48.084;17.272;2023-04-25T05:11:52;5.18;;;3.15;;
62610;SDS011;48683;48.084;17.272;2023-04-25T05:14:18;4.75;;;3.40;;
62610;SDS011;48683;48.084;17.272;2023-04-25T05:16:43;3.83;;;3.22;;
62610;SDS011;48683;48.084;17.272;2023-04-25T05:19:09;3.58;;;3.28;;
62610;SDS011;48683;48.084;17.272;2023-04-25T05:21:34;4.32;;;3.03;;
62610;SDS011;48683;48.084;17.272;2023-04-25T05:24:00;4.00;;;3.10;;
62610;SDS011;48683;48.084;17.272;2023-04-25T05:26:26;4.07;;;3.00;;
62610;SDS011;48683;48.084;17.272;2023-04-25T05:28:55;4.72;;;3.20;;
62610;SDS011;48683;48.084;17.272;2023-04-25T05:31:21;4.35;;;3.22;;
62610;SDS011;48683;48.084;17.272;2023-04-25T05:33:46;3.22;;;2.92;;
62610;SDS011;48683;48.084;17.272;2023-04-25T05:36:12;3.95;;;3.30;;
62610;SDS011;48683;48.084;17.272;2023-04-25T05:38:37;4.78;;;2.85;;
62610;SDS011;48683;48.084;17.272;2023-04-25T05:41:03;4.00;;;2.75;;
62610;SDS011;48683;48.084;17.272;2023-04-25T05:43:28;3.13;;;2.80;;
62610;SDS011;48683;48.084;17.272;2023-04-25T05:45:53;4.63;;;2.83;;
62610;SDS011;48683;48.084;17.272;2023-04-25T05:48:19;3.83;;;3.05;;
62610;SDS011;48683;48.084;17.272;2023-04-25T05:50:44;6.00;;;3.00;;
62610;SDS011;48683;48.084;17.272;2023-04-25T05:53:10;4.50;;;3.22;;
62610;SDS011;48683;48.084;17.272;2023-04-25T05:55:35;2.97;;;2.67;;
62610;SDS011;48683;48.084;17.272;2023-04-25T05:58:00;3.40;;;2.95;;
62610;SDS011;48683;48.084;17.272;2023-04-25T06:00:26;4.13;;;3.15;;
62610;SDS011;48683;48.084;17.272;2023-04-25T06:02:51;5.15;;;3.42;;
62610;SDS011;48683;48.084;17.272;2023-04-25T06:05:17;3.30;;;3.00;;
62610;SDS011;48683;48.084;17.272;2023-04-25T06:07:42;4.25;;;3.08;;
62610;SDS011;48683;48.084;17.272;2023-04-25T06:10:08;5.68;;;3.10;;
62610;SDS011;48683;48.084;17.272;2023-04-25T06:12:34;3.95;;;3.20;;
62610;SDS011;48683;48.084;17.272;2023-04-25T06:14:59;3.38;;;2.83;;
62610;SDS011;48683;48.084;17.272;2023-04-25T06:17:25;3.38;;;3.08;;
62610;SDS011;48683;48.084;17.272;2023-04-25T06:19:51;4.82;;;3.00;;
62610;SDS011;48683;48.084;17.272;2023-04-25T06:22:16;4.68;;;2.88;;
62610;SDS011;48683;48.084;17.272;2023-04-25T06:24:41;5.85;;;3.20;;
62610;SDS011;48683;48.084;17.272;2023-04-25T06:27:07;5.50;;;3.33;;
62610;SDS011;48683;48.084;17.272;2023-04-25T06:29:32;4.60;;;3.35;;
62610;SDS011;48683;48.084;17.272;2023-04-25T06:31:57;5.50;;;3.30;;
62610;SDS011;48683;48.084;17.272;2023-04-25T06:34:23;4.50;;;3.10;;
62610;SDS011;48683;48.084;17.272;2023-04-25T06:36:49;8.60;;;3.40;;
62610;SDS011;48683;48.084;17.272;2023-04-25T06:39:14;3.35;;;3.00;;
62610;SDS011;48683;48.084;17.272;2023-04-25T06:41:39;3.97;;;3.10;;
62610;SDS011;48683;48.084;17.272;2023-04-25T06:44:05;3.85;;;2.90;;
62610;SDS011;48683;48.084;17.272;2023-04-25T06:46:31;5.45;;;3.65;;
62610;SDS011;48683;48.084;17.272;2023-04-25T06:48:56;5.30;;;3.20;;
62610;SDS011;48683;48.084;17.272;2023-04-25T06:51:21;3.88;;;3.15;;
62610;SDS011;48683;48.084;17.272;2023-04-25T06:53:47;7.30;;;3.65;;
62610;SDS011;48683;48.084;17.272;2023-04-25T06:56:12;3.60;;;3.13;;
62610;SDS011;48683;48.084;17.272;2023-04-25T06:58:37;5.22;;;3.35;;
62610;SDS011;48683;48.084;17.272;2023-04-25T07:01:03;5.32;;;3.55;;
62610;SDS011;48683;48.084;17.272;2023-04-25T07:03:28;7.00;;;3.45;;
62610;SDS011;48683;48.084;17.272;2023-04-25T07:05:54;5.88;;;3.55;;
62610;SDS011;48683;48.084;17.272;2023-04-25T07:08:20;3.65;;;3.20;;
62610;SDS011;48683;48.084;17.272;2023-04-25T07:10:46;5.35;;;3.67;;
62610;SDS011;48683;48.084;17.272;2023-04-25T07:13:11;6.18;;;3.95;;
62610;SDS011;48683;48.084;17.272;2023-04-25T07:15:37;7.32;;;3.78;;
62610;SDS011;48683;48.084;17.272;2023-04-25T07:18:02;5.53;;;3.65;;
62610;SDS011;48683;48.084;17.272;2023-04-25T07:20:27;6.20;;;3.85;;
62610;SDS011;48683;48.084;17.272;2023-04-25T07:22:53;11.90;;;4.00;;
62610;SDS011;48683;48.084;17.272;2023-04-25T07:25:18;6.43;;;3.42;;
62610;SDS011;48683;48.084;17.272;2023-04-25T07:27:44;4.72;;;3.42;;
62610;SDS011;48683;48.084;17.272;2023-04-25T07:30:10;7.57;;;3.70;;
62610;SDS011;48683;48.084;17.272;2023-04-25T07:32:36;3.22;;;2.92;;
62610;SDS011;48683;48.084;17.272;2023-04-25T07:35:01;8.18;;;2.83;;
62610;SDS011;48683;48.084;17.272;2023-04-25T07:37:28;8.13;;;3.15;;
62610;SDS011;48683;48.084;17.272;2023-04-25T07:39:53;6.05;;;3.80;;
62610;SDS011;48683;48.084;17.272;2023-04-25T07:42:19;5.45;;;3.90;;
62610;SDS011;48683;48.084;17.272;2023-04-25T07:44:44;4.35;;;3.50;;
62610;SDS011;48683;48.084;17.272;2023-04-25T07:47:09;7.28;;;3.13;;
62610;SDS011;48683;48.084;17.272;2023-04-25T07:49:35;5.40;;;3.15;;
62610;SDS011;48683;48.084;17.272;2023-04-25T07:52:02;6.63;;;3.45;;
62610;SDS011;48683;48.084;17.272;2023-04-25T07:54:28;6.65;;;3.35;;
62610;SDS011;48683;48.084;17.272;2023-04-25T07:56:54;5.93;;;3.50;;
62610;SDS011;48683;48.084;17.272;2023-04-25T07:59:20;4.40;;;3.33;;
62610;SDS011;48683;48.084;17.272;2023-04-25T08:01:45;5.13;;;3.75;;
62610;SDS011;48683;48.084;17.272;2023-04-25T08:04:11;4.35;;;3.40;;
62610;SDS011;48683;48.084;17.272;2023-04-25T08:06:36;4.63;;;3.33;;
62610;SDS011;48683;48.084;17.272;2023-04-25T08:09:02;6.25;;;3.58;;
62610;SDS011;48683;48.084;17.272;2023-04-25T08:11:28;6.65;;;3.72;;
62610;SDS011;48683;48.084;17.272;2023-04-25T08:13:53;4.95;;;3.38;;
62610;SDS011;48683;48.084;17.272;2023-04-25T08:16:19;11.05;;;4.05;;
62610;SDS011;48683;48.084;17.272;2023-04-25T08:18:44;6.07;;;3.40;;
62610;SDS011;48683;48.084;17.272;2023-04-25T08:21:09;3.47;;;3.17;;
62610;SDS011;48683;48.084;17.272;2023-04-25T08:23:36;5.00;;;3.55;;
62610;SDS011;48683;48.084;17.272;2023-04-25T08:26:02;7.47;;;4.60;;
62610;SDS011;48683;48.084;17.272;2023-04-25T08:28:28;5.37;;;3.20;;
62610;SDS011;48683;48.084;17.272;2023-04-25T08:30:53;5.00;;;3.85;;
62610;SDS011;48683;48.084;17.272;2023-04-25T08:33:19;5.53;;;3.28;;
62610;SDS011;48683;48.084;17.272;2023-04-25T08:35:44;3.75;;;3.35;;
62610;SDS011;48683;48.084;17.272;2023-04-25T08:38:10;4.53;;;3.22;;
62610;SDS011;48683;48.084;17.272;2023-04-25T08:40:37;4.53;;;3.40;;
62610;SDS011;48683;48.084;17.272;2023-04-25T08:43:03;7.22;;;3.28;;
62610;SDS011;48683;48.084;17.272;2023-04-25T08:45:36;5.30;;;3.08;;
62610;SDS011;48683;48.084;17.272;2023-04-25T08:48:04;4.07;;;2.78;;
62610;SDS011;48683;48.084;17.272;2023-04-25T08:50:31;3.58;;;3.25;;
62610;SDS011;48683;48.084;17.272;2023-04-25T08:52:57;6.07;;;2.80;;
62610;SDS011;48683;48.084;17.272;2023-04-25T08:55:28;4.63;;;3.08;;
62610;SDS011;48683;48.084;17.272;2023-04-25T08:57:54;7.30;;;2.85;;
62610;SDS011;48683;48.084;17.272;2023-04-25T09:00:19;3.80;;;2.97;;
62610;SDS011;48683;48.084;17.272;2023-04-25T09:02:45;6.63;;;3.03;;
62610;SDS011;48683;48.084;17.272;2023-04-25T09:05:12;5.78;;;3.22;;
62610;SDS011;48683;48.084;17.272;2023-04-25T09:07:38;4.07;;;2.58;;
62610;SDS011;48683;48.084;17.272;2023-04-25T09:10:04;4.07;;;2.75;;
62610;SDS011;48683;48.084;17.272;2023-04-25T09:12:29;6.53;;;2.90;;
62610;SDS011;48683;48.084;17.272;2023-04-25T09:17:34;7.43;;;2.83;;
62610;SDS011;48683;48.084;17.272;2023-04-25T09:20:06;6.13;;;3.13;;
62610;SDS011;48683;48.084;17.272;2023-04-25T09:22:33;3.83;;;2.65;;
62610;SDS011;48683;48.084;17.272;2023-04-25T09:25:02;4.25;;;2.80;;
62610;SDS011;48683;48.084;17.272;2023-04-25T09:27:34;5.25;;;3.00;;
62610;SDS011;48683;48.084;17.272;2023-04-25T09:29:59;4.27;;;2.50;;
62610;SDS011;48683;48.084;17.272;2023-04-25T09:32:25;5.65;;;2.42;;
62610;SDS011;48683;48.084;17.272;2023-04-25T09:34:55;4.13;;;3.00;;
62610;SDS011;48683;48.084;17.272;2023-04-25T09:37:28;2.90;;;2.55;;
62610;SDS011;48683;48.084;17.272;2023-04-25T09:39:58;3.03;;;2.40;;
62610;SDS011;48683;48.084;17.272;2023-04-25T09:42:28;4.10;;;2.88;;
62610;SDS011;48683;48.084;17.272;2023-04-25T09:44:54;4.05;;;2.78;;
62610;SDS011;48683;48.084;17.272;2023-04-25T09:47:22;3.75;;;2.83;;
62610;SDS011;48683;48.084;17.272;2023-04-25T09:49:49;4.05;;;2.85;;
62610;SDS011;48683;48.084;17.272;2023-04-25T09:52:15;4.15;;;2.72;;
62610;SDS011;48683;48.084;17.272;2023-04-25T09:54:50;4.70;;;2.80;;
62610;SDS011;48683;48.084;17.272;2023-04-25T09:57:20;3.83;;;3.03;;
62610;SDS011;48683;48.084;17.272;2023-04-25T09:59:47;5.78;;;3.13;;
62610;SDS011;48683;48.084;17.272;2023-04-25T10:02:14;3.90;;;2.95;;
62610;SDS011;48683;48.084;17.272;2023-04-25T10:04:41;3.83;;;3.17;;
62610;SDS011;48683;48.084;17.272;2023-04-25T10:07:09;4.95;;;2.90;;
62610;SDS011;48683;48.084;17.272;2023-04-25T10:09:37;2.88;;;2.63;;
62610;SDS011;48683;48.084;17.272;2023-04-25T10:12:05;4.05;;;3.15;;
62610;SDS011;48683;48.084;17.272;2023-04-25T10:14:32;3.20;;;2.63;;
62610;SDS011;48683;48.084;17.272;2023-04-25T10:16:58;3.20;;;2.90;;
62610;SDS011;48683;48.084;17.272;2023-04-25T10:19:24;2.80;;;2.50;;
62610;SDS011;48683;48.084;17.272;2023-04-25T10:21:56;2.75;;;2.38;;
62610;SDS011;48683;48.084;17.272;2023-04-25T10:24:28;3.10;;;2.80;;
62610;SDS011;48683;48.084;17.272;2023-04-25T10:26:53;4.17;;;2.47;;
62610;SDS011;48683;48.084;17.272;2023-04-25T10:29:24;3.47;;;3.10;;
62610;SDS011;48683;48.084;17.272;2023-04-25T10:31:50;6.55;;;2.90;;
62610;SDS011;48683;48.084;17.272;2023-04-25T10:34:16;5.83;;;3.87;;
62610;SDS011;48683;48.084;17.272;2023-04-25T10:36:42;7.28;;;3.03;;
62610;SDS011;48683;48.084;17.272;2023-04-25T10:39:08;3.65;;;2.92;;
62610;SDS011;48683;48.084;17.272;2023-04-25T10:41:46;3.08;;;2.38;;
62610;SDS011;48683;48.084;17.272;2023-04-25T10:44:16;2.67;;;2.25;;
62610;SDS011;48683;48.084;17.272;2023-04-25T10:46:41;5.17;;;2.60;;
62610;SDS011;48683;48.084;17.272;2023-04-25T10:49:08;4.03;;;2.90;;
62610;SDS011;48683;48.084;17.272;2023-04-25T10:51:36;5.75;;;2.83;;
62610;SDS011;48683;48.084;17.272;2023-04-25T10:54:02;4.30;;;3.10;;
62610;SDS011;48683;48.084;17.272;2023-04-25T10:56:32;7.93;;;3.28;;
62610;SDS011;48683;48.084;17.272;2023-04-25T11:01:39;3.45;;;2.45;;
62610;SDS011;48683;48.084;17.272;2023-04-25T11:04:05;2.90;;;2.17;;
62610;SDS011;48683;48.084;17.272;2023-04-25T11:06:43;4.23;;;2.40;;
62610;SDS011;48683;48.084;17.272;2023-04-25T11:09:20;3.08;;;2.78;;
62610;SDS011;48683;48.084;17.272;2023-04-25T11:11:58;3.72;;;2.55;;
62610;SDS011;48683;48.084;17.272;2023-04-25T11:14:25;3.95;;;2.88;;
62610;SDS011;48683;48.084;17.272;2023-04-25T11:19:20;3.50;;;3.20;;
62610;SDS011;48683;48.084;17.272;2023-04-25T11:21:46;4.80;;;3.20;;
62610;SDS011;48683;48.084;17.272;2023-04-25T11:24:11;3.77;;;3.47;;
62610;SDS011;48683;48.084;17.272;2023-04-25T11:26:37;4.10;;;3.33;;
62610;SDS011;48683;48.084;17.272;2023-04-25T11:29:02;4.27;;;3.20;;
62610;SDS011;48683;48.084;17.272;2023-04-25T11:31:28;3.20;;;2.90;;
62610;SDS011;48683;48.084;17.272;2023-04-25T11:33:56;6.00;;;3.03;;
62610;SDS011;48683;48.084;17.272;2023-04-25T11:36:22;3.90;;;3.17;;
62610;SDS011;48683;48.084;17.272;2023-04-25T11:38:49;4.05;;;2.97;;
62610;SDS011;48683;48.084;17.272;2023-04-25T11:41:16;4.35;;;3.00;;
62610;SDS011;48683;48.084;17.272;2023-04-25T11:43:42;3.73;;;3.13;;
62610;SDS011;48683;48.084;17.272;2023-04-25T11:46:08;4.20;;;2.55;;
62610;SDS011;48683;48.084;17.272;2023-04-25T11:48:40;4.53;;;2.70;;
62610;SDS011;48683;48.084;17.272;2023-04-25T11:51:06;4.93;;;2.90;;
62610;SDS011;48683;48.084;17.272;2023-04-25T11:53:32;3.50;;;2.90;;
62610;SDS011;48683;48.084;17.272;2023-04-25T11:55:57;3.43;;;2.90;;
62610;SDS011;48683;48.084;17.272;2023-04-25T11:58:23;4.20;;;2.57;;
62610;SDS011;48683;48.084;17.272;2023-04-25T12:00:48;3.77;;;2.30;;
62610;SDS011;48683;48.084;17.272;2023-04-25T12:03:14;2.57;;;2.00;;
62610;SDS011;48683;48.084;17.272;2023-04-25T12:05:39;3.33;;;2.27;;
62610;SDS011;48683;48.084;17.272;2023-04-25T12:10:38;3.80;;;2.20;;
62610;SDS011;48683;48.084;17.272;2023-04-25T12:13:21;3.22;;;2.25;;
62610;SDS011;48683;48.084;17.272;2023-04-25T12:15:51;6.70;;;2.33;;
62610;SDS011;48683;48.084;17.272;2023-04-25T12:18:19;3.15;;;1.80;;
62610;SDS011;48683;48.084;17.272;2023-04-25T12:20:46;1.75;;;1.63;;
62610;SDS011;48683;48.084;17.272;2023-04-25T12:23:12;1.40;;;1.30;;
62610;SDS011;48683;48.084;17.272;2023-04-25T12:28:13;3.10;;;1.20;;
62610;SDS011;48683;48.084;17.272;2023-04-25T12:33:26;1.33;;;1.23;;
62610;SDS011;48683;48.084;17.272;2023-04-25T12:35:54;3.05;;;1.52;;
62610;SDS011;48683;48.084;17.272;2023-04-25T12:38:20;2.90;;;1.80;;
62610;SDS011;48683;48.084;17.272;2023-04-25T12:40:50;1.80;;;1.45;;
62610;SDS011;48683;48.084;17.272;2023-04-25T12:43:15;1.75;;;1.30;;
62610;SDS011;48683;48.084;17.272;2023-04-25T12:45:41;2.10;;;1.73;;
62610;SDS011;48683;48.084;17.272;2023-04-25T12:48:07;2.58;;;1.58;;
62610;SDS011;48683;48.084;17.272;2023-04-25T12:50:32;2.38;;;1.80;;
62610;SDS011;48683;48.084;17.272;2023-04-25T12:52:57;1.90;;;1.75;;
62610;SDS011;48683;48.084;17.272;2023-04-25T12:55:23;2.90;;;2.60;;
62610;SDS011;48683;48.084;17.272;2023-04-25T12:57:48;3.65;;;2.47;;
62610;SDS011;48683;48.084;17.272;2023-04-25T13:00:14;2.85;;;1.80;;
62610;SDS011;48683;48.084;17.272;2023-04-25T13:02:40;2.08;;;1.88;;
62610;SDS011;48683;48.084;17.272;2023-04-25T13:05:05;1.70;;;1.60;;
62610;SDS011;48683;48.084;17.272;2023-04-25T13:07:31;2.03;;;1.50;;
62610;SDS011;48683;48.084;17.272;2023-04-25T13:09:56;5.65;;;1.70;;
62610;SDS011;48683;48.084;17.272;2023-04-25T13:12:22;1.42;;;1.33;;
62610;SDS011;48683;48.084;17.272;2023-04-25T13:14:47;1.50;;;1.30;;
62610;SDS011;48683;48.084;17.272;2023-04-25T13:17:12;1.63;;;1.30;;
62610;SDS011;48683;48.084;17.272;2023-04-25T13:19:38;1.17;;;1.08;;
62610;SDS011;48683;48.084;17.272;2023-04-25T13:22:04;2.65;;;1.30;;
62610;SDS011;48683;48.084;17.272;2023-04-25T13:24:29;1.58;;;1.15;;
62610;SDS011;48683;48.084;17.272;2023-04-25T13:26:54;1.45;;;1.08;;
62610;SDS011;48683;48.084;17.272;2023-04-25T13:29:20;1.30;;;1.20;;
62610;SDS011;48683;48.084;17.272;2023-04-25T13:31:45;1.42;;;1.33;;
62610;SDS011;48683;48.084;17.272;2023-04-25T13:34:11;2.38;;;1.77;;
62610;SDS011;48683;48.084;17.272;2023-04-25T13:36:37;2.40;;;1.77;;
62610;SDS011;48683;48.084;17.272;2023-04-25T13:39:03;2.03;;;1.40;;
62610;SDS011;48683;48.084;17.272;2023-04-25T13:41:29;3.33;;;2.17;;
62610;SDS011;48683;48.084;17.272;2023-04-25T13:43:55;2.00;;;1.80;;
62610;SDS011;48683;48.084;17.272;2023-04-25T13:46:20;2.22;;;1.90;;
62610;SDS011;48683;48.084;17.272;2023-04-25T13:48:46;2.95;;;2.08;;
62610;SDS011;48683;48.084;17.272;2023-04-25T13:51:13;3.45;;;2.00;;
62610;SDS011;48683;48.084;17.272;2023-04-25T13:56:05;2.33;;;2.00;;
62610;SDS011;48683;48.084;17.272;2023-04-25T13:58:31;5.22;;;2.38;;
62610;SDS011;48683;48.084;17.272;2023-04-25T14:00:57;4.35;;;2.35;;
62610;SDS011;48683;48.084;17.272;2023-04-25T14:03:23;3.85;;;2.00;;
62610;SDS011;48683;48.084;17.272;2023-04-25T14:05:48;2.33;;;1.80;;
62610;SDS011;48683;48.084;17.272;2023-04-25T14:08:14;3.40;;;2.00;;
62610;SDS011;48683;48.084;17.272;2023-04-25T14:10:39;4.07;;;1.63;;
62610;SDS011;48683;48.084;17.272;2023-04-25T14:13:05;2.28;;;1.30;;
62610;SDS011;48683;48.084;17.272;2023-04-25T14:15:32;1.27;;;1.17;;
62610;SDS011;48683;48.084;17.272;2023-04-25T14:17:57;1.45;;;1.10;;
62610;SDS011;48683;48.084;17.272;2023-04-25T14:20:25;1.40;;;1.30;;
62610;SDS011;48683;48.084;17.272;2023-04-25T14:22:51;2.25;;;1.63;;
62610;SDS011;48683;48.084;17.272;2023-04-25T14:25:18;1.20;;;1.10;;
62610;SDS011;48683;48.084;17.272;2023-04-25T14:27:44;1.23;;;1.13;;
62610;SDS011;48683;48.084;17.272;2023-04-25T14:30:12;1.38;;;1.10;;
62610;SDS011;48683;48.084;17.272;2023-04-25T14:32:37;1.17;;;1.10;;
62610;SDS011;48683;48.084;17.272;2023-04-25T14:35:03;1.30;;;1.20;;
62610;SDS011;48683;48.084;17.272;2023-04-25T14:37:28;1.60;;;1.40;;
62610;SDS011;48683;48.084;17.272;2023-04-25T14:39:54;1.67;;;1.58;;
62610;SDS011;48683;48.084;17.272;2023-04-25T14:42:19;1.73;;;1.40;;
62610;SDS011;48683;48.084;17.272;2023-04-25T14:44:45;1.85;;;1.20;;
62610;SDS011;48683;48.084;17.272;2023-04-25T14:47:10;1.83;;;1.73;;
62610;SDS011;48683;48.084;17.272;2023-04-25T14:49:36;1.90;;;1.70;;
62610;SDS011;48683;48.084;17.272;2023-04-25T14:52:01;2.30;;;1.58;;